sensor_id;sensor_type;location;lat;lon;timestamp;P1;durP1;ratioP1;P2;durP2;ratioP2
5690;SDS011;2870;42.680;23.364;2022-07-29T00:00:05;16.30;;;12.30;;
5690;SDS011;2870;42.680;23.364;2022-07-29T00:02:34;16.27;;;12.23;;
5690;SDS011;2870;42.680;23.364;2022-07-29T00:05:01;19.80;;;12.03;;
5690;SDS011;2870;42.680;23.364;2022-07-29T00:07:28;17.43;;;13.00;;
5690;SDS011;2870;42.680;23.364;2022-07-29T00:09:56;15.83;;;12.60;;
5690;SDS011;2870;42.680;23.364;2022-07-29T00:12:23;16.13;;;11.80;;
5690;SDS011;2870;42.680;23.364;2022-07-29T00:14:51;16.20;;;12.90;;
5690;SDS011;2870;42.680;23.364;2022-07-29T00:17:18;14.83;;;12.47;;
5690;SDS011;2870;42.680;23.364;2022-07-29T00:19:45;16.03;;;13.53;;
5690;SDS011;2870;42.680;23.364;2022-07-29T00:22:12;19.27;;;12.67;;
5690;SDS011;2870;42.680;23.364;2022-07-29T00:24:39;17.63;;;12.20;;
5690;SDS011;2870;42.680;23.364;2022-07-29T00:27:07;15.70;;;12.73;;
5690;SDS011;2870;42.680;23.364;2022-07-29T00:29:33;20.77;;;11.87;;
5690;SDS011;2870;42.680;23.364;2022-07-29T00:32:00;13.50;;;11.33;;
5690;SDS011;2870;42.680;23.364;2022-07-29T00:34:27;19.30;;;12.00;;
5690;SDS011;2870;42.680;23.364;2022-07-29T00:37:11;17.03;;;12.27;;
5690;SDS011;2870;42.680;23.364;2022-07-29T00:39:38;17.97;;;11.20;;
5690;SDS011;2870;42.680;23.364;2022-07-29T00:42:07;14.33;;;11.30;;
5690;SDS011;2870;42.680;23.364;2022-07-29T00:44:36;15.77;;;11.20;;
5690;SDS011;2870;42.680;23.364;2022-07-29T00:47:03;14.10;;;11.93;;
5690;SDS011;2870;42.680;23.364;2022-07-29T00:49:30;17.67;;;12.03;;
5690;SDS011;2870;42.680;23.364;2022-07-29T00:51:57;18.87;;;12.20;;
5690;SDS011;2870;42.680;23.364;2022-07-29T00:54:24;15.40;;;11.93;;
5690;SDS011;2870;42.680;23.364;2022-07-29T00:56:51;17.87;;;12.87;;
5690;SDS011;2870;42.680;23.364;2022-07-29T00:59:20;20.93;;;13.40;;
5690;SDS011;2870;42.680;23.364;2022-07-29T01:01:47;20.23;;;12.77;;
5690;SDS011;2870;42.680;23.364;2022-07-29T01:04:14;16.73;;;12.97;;
5690;SDS011;2870;42.680;23.364;2022-07-29T01:06:41;18.63;;;13.17;;
5690;SDS011;2870;42.680;23.364;2022-07-29T01:09:09;19.47;;;14.30;;
5690;SDS011;2870;42.680;23.364;2022-07-29T01:11:37;19.70;;;14.40;;
5690;SDS011;2870;42.680;23.364;2022-07-29T01:14:04;18.60;;;15.20;;
5690;SDS011;2870;42.680;23.364;2022-07-29T01:16:37;19.37;;;14.90;;
5690;SDS011;2870;42.680;23.364;2022-07-29T01:19:13;24.70;;;14.60;;
5690;SDS011;2870;42.680;23.364;2022-07-29T01:22:00;25.67;;;16.30;;
5690;SDS011;2870;42.680;23.364;2022-07-29T01:24:47;31.13;;;19.27;;
5690;SDS011;2870;42.680;23.364;2022-07-29T01:27:32;22.53;;;17.67;;
5690;SDS011;2870;42.680;23.364;2022-07-29T01:30:08;24.10;;;18.37;;
5690;SDS011;2870;42.680;23.364;2022-07-29T01:32:36;23.20;;;18.00;;
5690;SDS011;2870;42.680;23.364;2022-07-29T01:35:07;29.60;;;19.40;;
5690;SDS011;2870;42.680;23.364;2022-07-29T01:37:43;25.70;;;18.33;;
5690;SDS011;2870;42.680;23.364;2022-07-29T01:40:24;25.70;;;19.43;;
5690;SDS011;2870;42.680;23.364;2022-07-29T01:42:56;27.00;;;19.80;;
5690;SDS011;2870;42.680;23.364;2022-07-29T01:45:27;27.13;;;18.47;;
5690;SDS011;2870;42.680;23.364;2022-07-29T01:48:09;27.67;;;18.60;;
5690;SDS011;2870;42.680;23.364;2022-07-29T01:50:40;25.13;;;18.80;;
5690;SDS011;2870;42.680;23.364;2022-07-29T01:53:15;24.87;;;18.10;;
5690;SDS011;2870;42.680;23.364;2022-07-29T01:55:48;24.47;;;17.80;;
5690;SDS011;2870;42.680;23.364;2022-07-29T01:58:16;22.70;;;17.57;;
5690;SDS011;2870;42.680;23.364;2022-07-29T02:00:46;23.57;;;18.00;;
5690;SDS011;2870;42.680;23.364;2022-07-29T02:03:16;27.60;;;18.63;;
5690;SDS011;2870;42.680;23.364;2022-07-29T02:05:45;26.87;;;17.40;;
5690;SDS011;2870;42.680;23.364;2022-07-29T02:08:14;23.50;;;18.70;;
5690;SDS011;2870;42.680;23.364;2022-07-29T02:10:43;26.70;;;18.20;;
5690;SDS011;2870;42.680;23.364;2022-07-29T02:13:11;27.30;;;18.20;;
5690;SDS011;2870;42.680;23.364;2022-07-29T02:15:39;24.50;;;18.60;;
5690;SDS011;2870;42.680;23.364;2022-07-29T02:18:11;24.80;;;17.30;;
5690;SDS011;2870;42.680;23.364;2022-07-29T02:20:42;21.57;;;17.23;;
5690;SDS011;2870;42.680;23.364;2022-07-29T02:23:11;24.50;;;17.10;;
5690;SDS011;2870;42.680;23.364;2022-07-29T02:25:40;29.03;;;18.67;;
5690;SDS011;2870;42.680;23.364;2022-07-29T02:28:09;30.20;;;17.23;;
5690;SDS011;2870;42.680;23.364;2022-07-29T02:30:36;23.67;;;18.00;;
5690;SDS011;2870;42.680;23.364;2022-07-29T02:33:07;23.50;;;18.47;;
5690;SDS011;2870;42.680;23.364;2022-07-29T02:35:37;24.40;;;18.07;;
5690;SDS011;2870;42.680;23.364;2022-07-29T02:38:06;23.80;;;17.70;;
5690;SDS011;2870;42.680;23.364;2022-07-29T02:40:51;21.33;;;16.03;;
5690;SDS011;2870;42.680;23.364;2022-07-29T02:43:21;24.40;;;16.57;;
5690;SDS011;2870;42.680;23.364;2022-07-29T02:45:50;23.73;;;15.93;;
5690;SDS011;2870;42.680;23.364;2022-07-29T02:48:19;18.73;;;14.97;;
5690;SDS011;2870;42.680;23.364;2022-07-29T02:50:54;22.20;;;16.03;;
5690;SDS011;2870;42.680;23.364;2022-07-29T02:53:31;18.10;;;13.20;;
5690;SDS011;2870;42.680;23.364;2022-07-29T02:56:01;19.13;;;14.43;;
5690;SDS011;2870;42.680;23.364;2022-07-29T02:58:34;23.53;;;15.20;;
5690;SDS011;2870;42.680;23.364;2022-07-29T03:01:08;21.23;;;14.77;;
5690;SDS011;2870;42.680;23.364;2022-07-29T03:03:39;19.60;;;13.70;;
5690;SDS011;2870;42.680;23.364;2022-07-29T03:06:13;21.10;;;13.27;;
5690;SDS011;2870;42.680;23.364;2022-07-29T03:08:41;21.37;;;12.87;;
5690;SDS011;2870;42.680;23.364;2022-07-29T03:11:09;17.70;;;13.40;;
5690;SDS011;2870;42.680;23.364;2022-07-29T03:13:37;19.87;;;15.30;;
5690;SDS011;2870;42.680;23.364;2022-07-29T03:16:05;28.53;;;16.07;;
5690;SDS011;2870;42.680;23.364;2022-07-29T03:18:33;21.83;;;14.50;;
5690;SDS011;2870;42.680;23.364;2022-07-29T03:21:02;21.63;;;16.57;;
5690;SDS011;2870;42.680;23.364;2022-07-29T03:23:31;23.80;;;15.03;;
5690;SDS011;2870;42.680;23.364;2022-07-29T03:25:58;27.63;;;15.50;;
5690;SDS011;2870;42.680;23.364;2022-07-29T03:28:24;20.50;;;16.17;;
5690;SDS011;2870;42.680;23.364;2022-07-29T03:30:52;25.03;;;17.27;;
5690;SDS011;2870;42.680;23.364;2022-07-29T03:33:19;21.53;;;16.60;;
5690;SDS011;2870;42.680;23.364;2022-07-29T03:35:46;22.17;;;16.70;;
5690;SDS011;2870;42.680;23.364;2022-07-29T03:38:12;25.50;;;17.53;;
5690;SDS011;2870;42.680;23.364;2022-07-29T03:40:42;23.90;;;17.40;;
5690;SDS011;2870;42.680;23.364;2022-07-29T03:43:15;20.07;;;16.30;;
5690;SDS011;2870;42.680;23.364;2022-07-29T03:45:44;29.30;;;15.90;;
5690;SDS011;2870;42.680;23.364;2022-07-29T03:48:14;22.63;;;15.50;;
5690;SDS011;2870;42.680;23.364;2022-07-29T03:50:43;23.00;;;16.40;;
5690;SDS011;2870;42.680;23.364;2022-07-29T03:53:11;22.13;;;16.33;;
5690;SDS011;2870;42.680;23.364;2022-07-29T03:55:40;23.10;;;15.80;;
5690;SDS011;2870;42.680;23.364;2022-07-29T03:58:09;26.07;;;14.50;;
5690;SDS011;2870;42.680;23.364;2022-07-29T04:00:37;20.83;;;17.30;;
5690;SDS011;2870;42.680;23.364;2022-07-29T04:03:04;26.63;;;17.40;;
5690;SDS011;2870;42.680;23.364;2022-07-29T04:05:31;29.13;;;18.27;;
5690;SDS011;2870;42.680;23.364;2022-07-29T04:07:58;30.83;;;17.77;;
5690;SDS011;2870;42.680;23.364;2022-07-29T04:10:25;24.67;;;18.37;;
5690;SDS011;2870;42.680;23.364;2022-07-29T04:12:53;21.27;;;15.73;;
5690;SDS011;2870;42.680;23.364;2022-07-29T04:15:20;24.90;;;17.27;;
5690;SDS011;2870;42.680;23.364;2022-07-29T04:17:46;26.30;;;13.93;;
5690;SDS011;2870;42.680;23.364;2022-07-29T04:20:13;19.00;;;13.87;;
5690;SDS011;2870;42.680;23.364;2022-07-29T04:22:40;23.10;;;13.90;;
5690;SDS011;2870;42.680;23.364;2022-07-29T04:25:07;19.37;;;14.77;;
5690;SDS011;2870;42.680;23.364;2022-07-29T04:27:34;26.83;;;15.03;;
5690;SDS011;2870;42.680;23.364;2022-07-29T04:30:22;21.70;;;13.53;;
5690;SDS011;2870;42.680;23.364;2022-07-29T04:32:49;19.17;;;13.60;;
5690;SDS011;2870;42.680;23.364;2022-07-29T04:35:17;25.23;;;14.90;;
5690;SDS011;2870;42.680;23.364;2022-07-29T04:37:43;20.60;;;13.33;;
5690;SDS011;2870;42.680;23.364;2022-07-29T04:40:11;18.57;;;13.23;;
5690;SDS011;2870;42.680;23.364;2022-07-29T04:42:38;16.30;;;11.43;;
5690;SDS011;2870;42.680;23.364;2022-07-29T04:45:05;18.43;;;13.43;;
5690;SDS011;2870;42.680;23.364;2022-07-29T04:47:34;21.43;;;13.40;;
5690;SDS011;2870;42.680;23.364;2022-07-29T04:50:01;19.87;;;13.67;;
5690;SDS011;2870;42.680;23.364;2022-07-29T04:52:28;17.90;;;12.67;;
5690;SDS011;2870;42.680;23.364;2022-07-29T04:54:55;17.67;;;13.27;;
5690;SDS011;2870;42.680;23.364;2022-07-29T04:57:21;22.60;;;13.30;;
5690;SDS011;2870;42.680;23.364;2022-07-29T04:59:48;19.73;;;14.13;;
5690;SDS011;2870;42.680;23.364;2022-07-29T05:02:15;24.30;;;14.40;;
5690;SDS011;2870;42.680;23.364;2022-07-29T05:04:43;22.33;;;14.13;;
5690;SDS011;2870;42.680;23.364;2022-07-29T05:07:10;21.83;;;12.73;;
5690;SDS011;2870;42.680;23.364;2022-07-29T05:09:37;18.90;;;13.80;;
5690;SDS011;2870;42.680;23.364;2022-07-29T05:12:04;18.70;;;12.33;;
5690;SDS011;2870;42.680;23.364;2022-07-29T05:14:31;16.73;;;12.77;;
5690;SDS011;2870;42.680;23.364;2022-07-29T05:16:58;17.23;;;11.73;;
5690;SDS011;2870;42.680;23.364;2022-07-29T05:19:25;15.10;;;11.30;;
5690;SDS011;2870;42.680;23.364;2022-07-29T05:21:53;21.90;;;12.60;;
5690;SDS011;2870;42.680;23.364;2022-07-29T05:24:20;18.77;;;12.90;;
5690;SDS011;2870;42.680;23.364;2022-07-29T05:26:48;15.20;;;11.90;;
5690;SDS011;2870;42.680;23.364;2022-07-29T05:29:14;25.33;;;13.17;;
5690;SDS011;2870;42.680;23.364;2022-07-29T05:31:41;14.07;;;11.43;;
5690;SDS011;2870;42.680;23.364;2022-07-29T05:34:08;17.90;;;11.70;;
5690;SDS011;2870;42.680;23.364;2022-07-29T05:36:35;17.43;;;10.60;;
5690;SDS011;2870;42.680;23.364;2022-07-29T05:39:03;20.10;;;11.30;;
5690;SDS011;2870;42.680;23.364;2022-07-29T05:41:31;15.33;;;9.50;;
5690;SDS011;2870;42.680;23.364;2022-07-29T05:43:58;11.83;;;9.30;;
5690;SDS011;2870;42.680;23.364;2022-07-29T05:46:25;16.13;;;8.30;;
5690;SDS011;2870;42.680;23.364;2022-07-29T05:48:52;12.37;;;8.80;;
5690;SDS011;2870;42.680;23.364;2022-07-29T05:51:19;13.50;;;8.60;;
5690;SDS011;2870;42.680;23.364;2022-07-29T05:53:45;13.10;;;9.80;;
5690;SDS011;2870;42.680;23.364;2022-07-29T05:56:13;17.33;;;8.97;;
5690;SDS011;2870;42.680;23.364;2022-07-29T05:58:40;21.17;;;9.77;;
5690;SDS011;2870;42.680;23.364;2022-07-29T06:01:08;12.70;;;9.60;;
5690;SDS011;2870;42.680;23.364;2022-07-29T06:03:35;12.73;;;9.07;;
5690;SDS011;2870;42.680;23.364;2022-07-29T06:06:02;15.63;;;10.90;;
5690;SDS011;2870;42.680;23.364;2022-07-29T06:08:31;19.43;;;9.70;;
5690;SDS011;2870;42.680;23.364;2022-07-29T06:10:58;13.53;;;8.90;;
5690;SDS011;2870;42.680;23.364;2022-07-29T06:13:27;14.10;;;8.87;;
5690;SDS011;2870;42.680;23.364;2022-07-29T06:15:53;15.50;;;8.67;;
5690;SDS011;2870;42.680;23.364;2022-07-29T06:18:21;17.03;;;9.70;;
5690;SDS011;2870;42.680;23.364;2022-07-29T06:20:49;11.87;;;9.00;;
5690;SDS011;2870;42.680;23.364;2022-07-29T06:23:15;12.57;;;8.80;;
5690;SDS011;2870;42.680;23.364;2022-07-29T06:25:42;15.10;;;9.57;;
5690;SDS011;2870;42.680;23.364;2022-07-29T06:28:09;19.27;;;9.77;;
5690;SDS011;2870;42.680;23.364;2022-07-29T06:30:37;13.20;;;9.67;;
5690;SDS011;2870;42.680;23.364;2022-07-29T06:33:04;13.20;;;10.00;;
5690;SDS011;2870;42.680;23.364;2022-07-29T06:35:32;21.77;;;9.57;;
5690;SDS011;2870;42.680;23.364;2022-07-29T06:38:00;12.90;;;9.17;;
5690;SDS011;2870;42.680;23.364;2022-07-29T06:40:27;12.90;;;8.97;;
5690;SDS011;2870;42.680;23.364;2022-07-29T06:43:11;13.23;;;8.43;;
5690;SDS011;2870;42.680;23.364;2022-07-29T06:45:39;11.90;;;8.90;;
5690;SDS011;2870;42.680;23.364;2022-07-29T06:48:07;10.70;;;8.70;;
5690;SDS011;2870;42.680;23.364;2022-07-29T06:50:35;21.03;;;8.43;;
5690;SDS011;2870;42.680;23.364;2022-07-29T06:53:02;11.80;;;7.80;;
5690;SDS011;2870;42.680;23.364;2022-07-29T06:55:28;14.70;;;7.80;;
5690;SDS011;2870;42.680;23.364;2022-07-29T06:57:55;11.20;;;7.90;;
5690;SDS011;2870;42.680;23.364;2022-07-29T07:00:22;15.20;;;8.70;;
5690;SDS011;2870;42.680;23.364;2022-07-29T07:02:50;12.10;;;7.97;;
5690;SDS011;2870;42.680;23.364;2022-07-29T07:05:17;13.30;;;7.47;;
5690;SDS011;2870;42.680;23.364;2022-07-29T07:07:44;17.33;;;7.73;;
5690;SDS011;2870;42.680;23.364;2022-07-29T07:10:11;11.93;;;7.30;;
5690;SDS011;2870;42.680;23.364;2022-07-29T07:12:37;11.47;;;6.57;;
5690;SDS011;2870;42.680;23.364;2022-07-29T07:15:05;11.93;;;7.50;;
5690;SDS011;2870;42.680;23.364;2022-07-29T07:17:32;9.93;;;6.63;;
5690;SDS011;2870;42.680;23.364;2022-07-29T07:20:00;15.23;;;11.00;;
5690;SDS011;2870;42.680;23.364;2022-07-29T07:22:27;12.57;;;7.33;;
5690;SDS011;2870;42.680;23.364;2022-07-29T07:24:54;9.63;;;7.30;;
5690;SDS011;2870;42.680;23.364;2022-07-29T07:27:20;11.53;;;6.97;;
5690;SDS011;2870;42.680;23.364;2022-07-29T07:29:48;11.17;;;6.70;;
5690;SDS011;2870;42.680;23.364;2022-07-29T07:32:14;10.37;;;6.53;;
5690;SDS011;2870;42.680;23.364;2022-07-29T07:34:42;14.67;;;6.30;;
5690;SDS011;2870;42.680;23.364;2022-07-29T07:37:10;9.60;;;6.77;;
5690;SDS011;2870;42.680;23.364;2022-07-29T07:39:39;9.83;;;6.40;;
5690;SDS011;2870;42.680;23.364;2022-07-29T07:42:06;14.07;;;6.70;;
5690;SDS011;2870;42.680;23.364;2022-07-29T07:44:33;10.70;;;6.37;;
5690;SDS011;2870;42.680;23.364;2022-07-29T07:47:00;13.73;;;6.73;;
5690;SDS011;2870;42.680;23.364;2022-07-29T07:49:26;10.90;;;6.20;;
5690;SDS011;2870;42.680;23.364;2022-07-29T07:51:53;15.93;;;6.70;;
5690;SDS011;2870;42.680;23.364;2022-07-29T07:54:21;7.33;;;5.10;;
5690;SDS011;2870;42.680;23.364;2022-07-29T07:56:48;9.50;;;6.33;;
5690;SDS011;2870;42.680;23.364;2022-07-29T07:59:16;7.50;;;5.93;;
5690;SDS011;2870;42.680;23.364;2022-07-29T08:01:42;11.47;;;6.30;;
5690;SDS011;2870;42.680;23.364;2022-07-29T08:04:09;8.30;;;6.17;;
5690;SDS011;2870;42.680;23.364;2022-07-29T08:06:36;10.13;;;5.77;;
5690;SDS011;2870;42.680;23.364;2022-07-29T08:09:03;9.60;;;6.30;;
5690;SDS011;2870;42.680;23.364;2022-07-29T08:11:32;7.70;;;5.43;;
5690;SDS011;2870;42.680;23.364;2022-07-29T08:13:59;9.40;;;5.70;;
5690;SDS011;2870;42.680;23.364;2022-07-29T08:16:26;8.80;;;5.57;;
5690;SDS011;2870;42.680;23.364;2022-07-29T08:18:53;24.30;;;5.63;;
5690;SDS011;2870;42.680;23.364;2022-07-29T08:21:22;9.87;;;5.63;;
5690;SDS011;2870;42.680;23.364;2022-07-29T08:23:50;9.70;;;5.13;;
5690;SDS011;2870;42.680;23.364;2022-07-29T08:26:18;11.37;;;4.77;;
5690;SDS011;2870;42.680;23.364;2022-07-29T08:28:48;7.37;;;4.73;;
5690;SDS011;2870;42.680;23.364;2022-07-29T08:31:16;7.97;;;4.37;;
5690;SDS011;2870;42.680;23.364;2022-07-29T08:33:43;11.10;;;4.40;;
5690;SDS011;2870;42.680;23.364;2022-07-29T08:36:10;9.17;;;4.67;;
5690;SDS011;2870;42.680;23.364;2022-07-29T08:38:38;11.30;;;4.87;;
5690;SDS011;2870;42.680;23.364;2022-07-29T08:41:04;15.93;;;4.90;;
5690;SDS011;2870;42.680;23.364;2022-07-29T08:43:32;7.33;;;4.20;;
5690;SDS011;2870;42.680;23.364;2022-07-29T08:46:03;6.83;;;4.60;;
5690;SDS011;2870;42.680;23.364;2022-07-29T08:48:30;6.27;;;3.90;;
5690;SDS011;2870;42.680;23.364;2022-07-29T08:50:58;10.50;;;4.03;;
5690;SDS011;2870;42.680;23.364;2022-07-29T08:53:26;12.13;;;4.40;;
5690;SDS011;2870;42.680;23.364;2022-07-29T08:55:54;5.97;;;3.87;;
5690;SDS011;2870;42.680;23.364;2022-07-29T08:58:21;6.03;;;3.93;;
5690;SDS011;2870;42.680;23.364;2022-07-29T09:00:50;7.57;;;4.77;;
5690;SDS011;2870;42.680;23.364;2022-07-29T09:03:23;9.50;;;4.20;;
5690;SDS011;2870;42.680;23.364;2022-07-29T09:05:51;6.70;;;4.20;;
5690;SDS011;2870;42.680;23.364;2022-07-29T09:08:19;5.73;;;3.80;;
5690;SDS011;2870;42.680;23.364;2022-07-29T09:10:47;5.80;;;3.87;;
5690;SDS011;2870;42.680;23.364;2022-07-29T09:13:14;5.47;;;3.90;;
5690;SDS011;2870;42.680;23.364;2022-07-29T09:15:41;5.40;;;3.70;;
5690;SDS011;2870;42.680;23.364;2022-07-29T09:18:07;6.10;;;4.00;;
5690;SDS011;2870;42.680;23.364;2022-07-29T09:20:37;6.30;;;4.00;;
5690;SDS011;2870;42.680;23.364;2022-07-29T09:23:22;11.97;;;4.83;;
5690;SDS011;2870;42.680;23.364;2022-07-29T09:25:49;7.37;;;4.13;;
5690;SDS011;2870;42.680;23.364;2022-07-29T09:28:16;8.00;;;4.80;;
5690;SDS011;2870;42.680;23.364;2022-07-29T09:30:49;8.80;;;4.43;;
5690;SDS011;2870;42.680;23.364;2022-07-29T09:33:17;6.93;;;4.27;;
5690;SDS011;2870;42.680;23.364;2022-07-29T09:35:46;14.80;;;5.30;;
5690;SDS011;2870;42.680;23.364;2022-07-29T09:38:24;8.20;;;4.80;;
5690;SDS011;2870;42.680;23.364;2022-07-29T09:40:55;10.60;;;4.50;;
5690;SDS011;2870;42.680;23.364;2022-07-29T09:43:22;8.10;;;5.57;;
5690;SDS011;2870;42.680;23.364;2022-07-29T09:45:49;7.57;;;4.70;;
5690;SDS011;2870;42.680;23.364;2022-07-29T09:48:17;9.47;;;4.53;;
5690;SDS011;2870;42.680;23.364;2022-07-29T09:50:46;5.63;;;4.07;;
5690;SDS011;2870;42.680;23.364;2022-07-29T09:53:29;7.17;;;4.13;;
5690;SDS011;2870;42.680;23.364;2022-07-29T09:55:57;5.83;;;4.10;;
5690;SDS011;2870;42.680;23.364;2022-07-29T09:58:24;5.73;;;4.00;;
5690;SDS011;2870;42.680;23.364;2022-07-29T10:00:51;5.27;;;3.90;;
5690;SDS011;2870;42.680;23.364;2022-07-29T10:03:20;7.90;;;4.30;;
5690;SDS011;2870;42.680;23.364;2022-07-29T10:06:03;6.70;;;3.63;;
5690;SDS011;2870;42.680;23.364;2022-07-29T10:08:31;5.97;;;3.97;;
5690;SDS011;2870;42.680;23.364;2022-07-29T10:11:08;6.00;;;3.67;;
5690;SDS011;2870;42.680;23.364;2022-07-29T10:13:36;10.00;;;3.67;;
5690;SDS011;2870;42.680;23.364;2022-07-29T10:16:03;7.40;;;3.93;;
5690;SDS011;2870;42.680;23.364;2022-07-29T10:18:30;10.37;;;3.80;;
5690;SDS011;2870;42.680;23.364;2022-07-29T10:20:59;4.90;;;3.80;;
5690;SDS011;2870;42.680;23.364;2022-07-29T10:23:27;4.33;;;3.10;;
5690;SDS011;2870;42.680;23.364;2022-07-29T10:25:54;4.37;;;2.90;;
5690;SDS011;2870;42.680;23.364;2022-07-29T10:28:22;5.43;;;3.20;;
5690;SDS011;2870;42.680;23.364;2022-07-29T10:30:50;6.33;;;3.10;;
5690;SDS011;2870;42.680;23.364;2022-07-29T10:33:21;8.83;;;3.17;;
5690;SDS011;2870;42.680;23.364;2022-07-29T10:36:04;6.83;;;3.57;;
5690;SDS011;2870;42.680;23.364;2022-07-29T10:38:47;6.07;;;2.83;;
5690;SDS011;2870;42.680;23.364;2022-07-29T10:41:24;4.17;;;3.10;;
5690;SDS011;2870;42.680;23.364;2022-07-29T10:44:04;5.90;;;3.10;;
5690;SDS011;2870;42.680;23.364;2022-07-29T10:46:34;7.80;;;3.17;;
5690;SDS011;2870;42.680;23.364;2022-07-29T10:49:09;9.03;;;3.90;;
5690;SDS011;2870;42.680;23.364;2022-07-29T10:54:37;5.30;;;3.63;;
5690;SDS011;2870;42.680;23.364;2022-07-29T10:57:15;7.43;;;3.47;;
5690;SDS011;2870;42.680;23.364;2022-07-29T10:59:50;6.33;;;3.77;;
5690;SDS011;2870;42.680;23.364;2022-07-29T11:02:45;7.33;;;3.90;;
5690;SDS011;2870;42.680;23.364;2022-07-29T11:05:17;7.47;;;4.30;;
5690;SDS011;2870;42.680;23.364;2022-07-29T11:10:52;11.17;;;4.00;;
5690;SDS011;2870;42.680;23.364;2022-07-29T11:13:45;6.17;;;4.30;;
5690;SDS011;2870;42.680;23.364;2022-07-29T11:16:14;6.40;;;4.17;;
5690;SDS011;2870;42.680;23.364;2022-07-29T11:21:45;9.70;;;4.30;;
5690;SDS011;2870;42.680;23.364;2022-07-29T11:24:15;6.40;;;3.93;;
5690;SDS011;2870;42.680;23.364;2022-07-29T11:26:44;7.70;;;4.43;;
5690;SDS011;2870;42.680;23.364;2022-07-29T11:29:16;9.93;;;4.90;;
5690;SDS011;2870;42.680;23.364;2022-07-29T11:31:47;5.73;;;4.30;;
5690;SDS011;2870;42.680;23.364;2022-07-29T11:34:17;7.97;;;4.40;;
5690;SDS011;2870;42.680;23.364;2022-07-29T11:39:41;6.03;;;4.33;;
5690;SDS011;2870;42.680;23.364;2022-07-29T11:45:19;14.73;;;4.97;;
5690;SDS011;2870;42.680;23.364;2022-07-29T11:47:52;13.30;;;4.60;;
5690;SDS011;2870;42.680;23.364;2022-07-29T11:50:30;7.20;;;4.90;;
5690;SDS011;2870;42.680;23.364;2022-07-29T11:53:01;8.07;;;5.53;;
5690;SDS011;2870;42.680;23.364;2022-07-29T11:55:30;6.00;;;4.50;;
5690;SDS011;2870;42.680;23.364;2022-07-29T11:58:02;9.73;;;4.90;;
5690;SDS011;2870;42.680;23.364;2022-07-29T12:00:30;9.10;;;5.07;;
5690;SDS011;2870;42.680;23.364;2022-07-29T12:02:59;5.90;;;4.80;;
5690;SDS011;2870;42.680;23.364;2022-07-29T12:05:31;9.70;;;5.10;;
5690;SDS011;2870;42.680;23.364;2022-07-29T12:08:09;6.17;;;4.33;;
5690;SDS011;2870;42.680;23.364;2022-07-29T12:10:37;12.27;;;5.10;;
5690;SDS011;2870;42.680;23.364;2022-07-29T12:13:06;9.33;;;5.33;;
5690;SDS011;2870;42.680;23.364;2022-07-29T12:15:33;12.17;;;5.67;;
5690;SDS011;2870;42.680;23.364;2022-07-29T12:18:09;17.97;;;5.00;;
5690;SDS011;2870;42.680;23.364;2022-07-29T12:20:37;6.87;;;5.40;;
5690;SDS011;2870;42.680;23.364;2022-07-29T12:23:07;8.60;;;5.73;;
5690;SDS011;2870;42.680;23.364;2022-07-29T12:25:37;7.60;;;5.63;;
5690;SDS011;2870;42.680;23.364;2022-07-29T12:28:05;7.60;;;5.10;;
5690;SDS011;2870;42.680;23.364;2022-07-29T12:30:41;6.67;;;5.20;;
5690;SDS011;2870;42.680;23.364;2022-07-29T12:33:20;10.33;;;5.43;;
5690;SDS011;2870;42.680;23.364;2022-07-29T12:35:49;8.60;;;5.63;;
5690;SDS011;2870;42.680;23.364;2022-07-29T12:38:18;7.27;;;5.83;;
5690;SDS011;2870;42.680;23.364;2022-07-29T12:40:46;8.63;;;5.83;;
5690;SDS011;2870;42.680;23.364;2022-07-29T12:43:16;9.13;;;5.50;;
5690;SDS011;2870;42.680;23.364;2022-07-29T12:45:45;7.80;;;6.23;;
5690;SDS011;2870;42.680;23.364;2022-07-29T12:48:13;20.27;;;6.23;;
5690;SDS011;2870;42.680;23.364;2022-07-29T12:50:54;9.47;;;6.17;;
5690;SDS011;2870;42.680;23.364;2022-07-29T12:53:22;10.17;;;5.90;;
5690;SDS011;2870;42.680;23.364;2022-07-29T12:55:50;11.70;;;5.93;;
5690;SDS011;2870;42.680;23.364;2022-07-29T12:58:27;9.10;;;5.70;;
5690;SDS011;2870;42.680;23.364;2022-07-29T13:01:05;6.30;;;5.33;;
5690;SDS011;2870;42.680;23.364;2022-07-29T13:03:47;8.50;;;6.60;;
5690;SDS011;2870;42.680;23.364;2022-07-29T13:06:28;12.30;;;5.70;;
5690;SDS011;2870;42.680;23.364;2022-07-29T13:08:58;15.47;;;6.40;;
5690;SDS011;2870;42.680;23.364;2022-07-29T13:11:27;8.57;;;5.70;;
5690;SDS011;2870;42.680;23.364;2022-07-29T13:13:56;12.90;;;6.37;;
5690;SDS011;2870;42.680;23.364;2022-07-29T13:16:23;9.23;;;5.30;;
5690;SDS011;2870;42.680;23.364;2022-07-29T13:19:02;13.33;;;6.20;;
5690;SDS011;2870;42.680;23.364;2022-07-29T13:21:33;7.03;;;5.60;;
5690;SDS011;2870;42.680;23.364;2022-07-29T13:24:00;7.50;;;5.70;;
5690;SDS011;2870;42.680;23.364;2022-07-29T13:26:27;6.53;;;5.67;;
5690;SDS011;2870;42.680;23.364;2022-07-29T13:28:54;13.80;;;6.10;;
5690;SDS011;2870;42.680;23.364;2022-07-29T13:31:22;7.10;;;5.17;;
5690;SDS011;2870;42.680;23.364;2022-07-29T13:33:49;8.37;;;5.40;;
5690;SDS011;2870;42.680;23.364;2022-07-29T13:36:16;7.60;;;5.67;;
5690;SDS011;2870;42.680;23.364;2022-07-29T13:38:43;6.70;;;5.47;;
5690;SDS011;2870;42.680;23.364;2022-07-29T13:41:10;9.03;;;5.73;;
5690;SDS011;2870;42.680;23.364;2022-07-29T13:43:37;8.77;;;5.67;;
5690;SDS011;2870;42.680;23.364;2022-07-29T13:46:05;6.70;;;5.60;;
5690;SDS011;2870;42.680;23.364;2022-07-29T13:48:32;8.63;;;5.93;;
5690;SDS011;2870;42.680;23.364;2022-07-29T13:50:59;7.40;;;5.13;;
5690;SDS011;2870;42.680;23.364;2022-07-29T13:53:27;6.33;;;4.80;;
5690;SDS011;2870;42.680;23.364;2022-07-29T13:55:54;8.03;;;5.40;;
5690;SDS011;2870;42.680;23.364;2022-07-29T13:58:21;9.97;;;5.17;;
5690;SDS011;2870;42.680;23.364;2022-07-29T14:00:47;8.13;;;5.53;;
5690;SDS011;2870;42.680;23.364;2022-07-29T14:03:16;7.30;;;5.77;;
5690;SDS011;2870;42.680;23.364;2022-07-29T14:05:42;9.03;;;6.17;;
5690;SDS011;2870;42.680;23.364;2022-07-29T14:08:09;11.20;;;6.03;;
5690;SDS011;2870;42.680;23.364;2022-07-29T14:10:36;8.80;;;5.67;;
5690;SDS011;2870;42.680;23.364;2022-07-29T14:13:03;7.57;;;5.57;;
5690;SDS011;2870;42.680;23.364;2022-07-29T14:15:29;7.50;;;5.80;;
5690;SDS011;2870;42.680;23.364;2022-07-29T14:17:56;7.77;;;5.50;;
5690;SDS011;2870;42.680;23.364;2022-07-29T14:20:24;9.37;;;6.10;;
5690;SDS011;2870;42.680;23.364;2022-07-29T14:22:53;9.50;;;5.87;;
5690;SDS011;2870;42.680;23.364;2022-07-29T14:25:20;9.07;;;6.33;;
5690;SDS011;2870;42.680;23.364;2022-07-29T14:27:46;9.60;;;5.70;;
5690;SDS011;2870;42.680;23.364;2022-07-29T14:30:13;8.03;;;5.77;;
5690;SDS011;2870;42.680;23.364;2022-07-29T14:32:40;9.70;;;5.90;;
5690;SDS011;2870;42.680;23.364;2022-07-29T14:35:07;7.50;;;5.80;;
5690;SDS011;2870;42.680;23.364;2022-07-29T14:37:36;8.17;;;5.37;;
5690;SDS011;2870;42.680;23.364;2022-07-29T14:40:03;9.60;;;6.10;;
5690;SDS011;2870;42.680;23.364;2022-07-29T14:42:31;7.77;;;5.70;;
5690;SDS011;2870;42.680;23.364;2022-07-29T14:44:57;10.90;;;5.13;;
5690;SDS011;2870;42.680;23.364;2022-07-29T14:47:24;8.00;;;5.70;;
5690;SDS011;2870;42.680;23.364;2022-07-29T14:49:51;8.07;;;5.60;;
5690;SDS011;2870;42.680;23.364;2022-07-29T14:52:18;12.90;;;5.93;;
5690;SDS011;2870;42.680;23.364;2022-07-29T14:54:46;10.17;;;6.53;;
5690;SDS011;2870;42.680;23.364;2022-07-29T14:57:13;7.13;;;5.40;;
5690;SDS011;2870;42.680;23.364;2022-07-29T14:59:41;8.30;;;5.73;;
5690;SDS011;2870;42.680;23.364;2022-07-29T15:02:08;7.87;;;5.60;;
5690;SDS011;2870;42.680;23.364;2022-07-29T15:04:35;9.80;;;5.80;;
5690;SDS011;2870;42.680;23.364;2022-07-29T15:07:02;8.97;;;5.70;;
5690;SDS011;2870;42.680;23.364;2022-07-29T15:09:29;9.57;;;5.97;;
5690;SDS011;2870;42.680;23.364;2022-07-29T15:11:58;7.50;;;5.90;;
5690;SDS011;2870;42.680;23.364;2022-07-29T15:14:24;8.90;;;5.70;;